sensor_id;sensor_type;location;lat;lon;timestamp;P1;durP1;ratioP1;P2;durP2;ratioP2
20890;SDS011;10605;52.968;8.844;2022-09-14T00:01:24;8.48;;;1.40;;
20890;SDS011;10605;52.968;8.844;2022-09-14T00:03:54;5.78;;;1.65;;
20890;SDS011;10605;52.968;8.844;2022-09-14T00:06:21;3.20;;;1.23;;
20890;SDS011;10605;52.968;8.844;2022-09-14T00:08:51;12.90;;;1.63;;
20890;SDS011;10605;52.968;8.844;2022-09-14T00:11:18;7.05;;;1.55;;
20890;SDS011;10605;52.968;8.844;2022-09-14T00:13:48;2.83;;;1.27;;
20890;SDS011;10605;52.968;8.844;2022-09-14T00:16:17;5.03;;;1.73;;
20890;SDS011;10605;52.968;8.844;2022-09-14T00:18:49;4.38;;;1.52;;
20890;SDS011;10605;52.968;8.844;2022-09-14T00:21:16;29.67;;;2.22;;
20890;SDS011;10605;52.968;8.844;2022-09-14T00:23:42;3.33;;;1.90;;
20890;SDS011;10605;52.968;8.844;2022-09-14T00:26:10;4.75;;;1.42;;
20890;SDS011;10605;52.968;8.844;2022-09-14T00:28:38;5.85;;;1.63;;
20890;SDS011;10605;52.968;8.844;2022-09-14T00:31:06;7.65;;;1.88;;
20890;SDS011;10605;52.968;8.844;2022-09-14T00:33:33;6.97;;;1.80;;
20890;SDS011;10605;52.968;8.844;2022-09-14T00:38:41;4.93;;;1.90;;
20890;SDS011;10605;52.968;8.844;2022-09-14T00:41:10;5.55;;;1.58;;
20890;SDS011;10605;52.968;8.844;2022-09-14T00:46:24;5.57;;;1.70;;
20890;SDS011;10605;52.968;8.844;2022-09-14T00:48:54;6.20;;;1.52;;
20890;SDS011;10605;52.968;8.844;2022-09-14T00:51:23;3.35;;;1.63;;
20890;SDS011;10605;52.968;8.844;2022-09-14T00:53:49;4.97;;;2.00;;
20890;SDS011;10605;52.968;8.844;2022-09-14T00:56:16;4.93;;;1.75;;
20890;SDS011;10605;52.968;8.844;2022-09-14T00:58:43;9.40;;;2.10;;
20890;SDS011;10605;52.968;8.844;2022-09-14T01:01:11;8.13;;;2.45;;
20890;SDS011;10605;52.968;8.844;2022-09-14T01:03:37;8.82;;;2.13;;
20890;SDS011;10605;52.968;8.844;2022-09-14T01:06:14;6.85;;;2.13;;
20890;SDS011;10605;52.968;8.844;2022-09-14T01:11:23;7.63;;;2.53;;
20890;SDS011;10605;52.968;8.844;2022-09-14T01:20:00;5.25;;;2.83;;
20890;SDS011;10605;52.968;8.844;2022-09-14T01:22:47;11.05;;;3.15;;
20890;SDS011;10605;52.968;8.844;2022-09-14T01:27:43;5.72;;;3.05;;
20890;SDS011;10605;52.968;8.844;2022-09-14T01:30:16;4.15;;;3.35;;
20890;SDS011;10605;52.968;8.844;2022-09-14T01:32:48;10.18;;;3.40;;
20890;SDS011;10605;52.968;8.844;2022-09-14T01:35:26;8.57;;;3.83;;
20890;SDS011;10605;52.968;8.844;2022-09-14T01:38:12;10.30;;;4.22;;
20890;SDS011;10605;52.968;8.844;2022-09-14T01:40:45;9.02;;;4.22;;
20890;SDS011;10605;52.968;8.844;2022-09-14T01:45:48;6.07;;;4.30;;
20890;SDS011;10605;52.968;8.844;2022-09-14T01:48:19;6.65;;;4.10;;
20890;SDS011;10605;52.968;8.844;2022-09-14T01:50:51;6.18;;;3.55;;
20890;SDS011;10605;52.968;8.844;2022-09-14T01:53:22;7.82;;;4.07;;
20890;SDS011;10605;52.968;8.844;2022-09-14T01:56:06;9.18;;;3.90;;
20890;SDS011;10605;52.968;8.844;2022-09-14T01:58:40;9.18;;;4.18;;
20890;SDS011;10605;52.968;8.844;2022-09-14T02:01:12;11.75;;;4.03;;
20890;SDS011;10605;52.968;8.844;2022-09-14T02:03:47;5.70;;;3.83;;
20890;SDS011;10605;52.968;8.844;2022-09-14T02:06:27;6.53;;;4.13;;
20890;SDS011;10605;52.968;8.844;2022-09-14T02:09:06;12.25;;;4.35;;
20890;SDS011;10605;52.968;8.844;2022-09-14T02:11:35;5.57;;;4.00;;
20890;SDS011;10605;52.968;8.844;2022-09-14T02:14:04;13.70;;;4.45;;
20890;SDS011;10605;52.968;8.844;2022-09-14T02:16:30;6.60;;;4.40;;
20890;SDS011;10605;52.968;8.844;2022-09-14T02:18:56;7.13;;;4.30;;
20890;SDS011;10605;52.968;8.844;2022-09-14T02:21:26;8.85;;;4.03;;
20890;SDS011;10605;52.968;8.844;2022-09-14T02:23:54;13.55;;;4.38;;
20890;SDS011;10605;52.968;8.844;2022-09-14T02:26:20;8.93;;;4.30;;
20890;SDS011;10605;52.968;8.844;2022-09-14T02:28:47;7.20;;;3.95;;
20890;SDS011;10605;52.968;8.844;2022-09-14T02:34:16;10.30;;;4.63;;
20890;SDS011;10605;52.968;8.844;2022-09-14T02:48:30;9.77;;;4.35;;
20890;SDS011;10605;52.968;8.844;2022-09-14T02:56:09;14.70;;;5.10;;
20890;SDS011;10605;52.968;8.844;2022-09-14T02:58:42;11.73;;;5.55;;
20890;SDS011;10605;52.968;8.844;2022-09-14T03:01:10;11.73;;;6.13;;
20890;SDS011;10605;52.968;8.844;2022-09-14T03:03:41;10.00;;;5.43;;
20890;SDS011;10605;52.968;8.844;2022-09-14T03:06:07;14.60;;;5.22;;
20890;SDS011;10605;52.968;8.844;2022-09-14T03:08:33;9.82;;;4.82;;
20890;SDS011;10605;52.968;8.844;2022-09-14T03:10:59;8.80;;;5.43;;
20890;SDS011;10605;52.968;8.844;2022-09-14T03:13:28;6.18;;;4.60;;
20890;SDS011;10605;52.968;8.844;2022-09-14T03:15:54;9.52;;;5.78;;
20890;SDS011;10605;52.968;8.844;2022-09-14T03:18:19;7.90;;;5.28;;
20890;SDS011;10605;52.968;8.844;2022-09-14T03:20:45;7.80;;;5.20;;
20890;SDS011;10605;52.968;8.844;2022-09-14T03:23:14;5.82;;;5.32;;
20890;SDS011;10605;52.968;8.844;2022-09-14T03:25:41;8.13;;;5.80;;
20890;SDS011;10605;52.968;8.844;2022-09-14T03:28:08;6.03;;;5.38;;
20890;SDS011;10605;52.968;8.844;2022-09-14T03:30:35;9.02;;;4.82;;
20890;SDS011;10605;52.968;8.844;2022-09-14T03:33:01;6.28;;;5.20;;
20890;SDS011;10605;52.968;8.844;2022-09-14T03:35:27;13.23;;;5.10;;
20890;SDS011;10605;52.968;8.844;2022-09-14T03:37:55;9.30;;;4.60;;
20890;SDS011;10605;52.968;8.844;2022-09-14T03:40:30;11.25;;;5.45;;
20890;SDS011;10605;52.968;8.844;2022-09-14T03:42:56;9.48;;;5.22;;
20890;SDS011;10605;52.968;8.844;2022-09-14T03:45:22;11.40;;;5.15;;
20890;SDS011;10605;52.968;8.844;2022-09-14T03:47:48;10.27;;;5.32;;
20890;SDS011;10605;52.968;8.844;2022-09-14T03:50:14;14.40;;;5.30;;
20890;SDS011;10605;52.968;8.844;2022-09-14T03:52:42;6.55;;;4.53;;
20890;SDS011;10605;52.968;8.844;2022-09-14T03:55:07;10.52;;;5.72;;
20890;SDS011;10605;52.968;8.844;2022-09-14T03:57:34;7.22;;;5.47;;
20890;SDS011;10605;52.968;8.844;2022-09-14T03:59:59;12.70;;;5.65;;
20890;SDS011;10605;52.968;8.844;2022-09-14T04:02:26;5.30;;;4.72;;
20890;SDS011;10605;52.968;8.844;2022-09-14T04:04:53;7.93;;;5.28;;
20890;SDS011;10605;52.968;8.844;2022-09-14T04:07:19;10.68;;;5.43;;
20890;SDS011;10605;52.968;8.844;2022-09-14T04:09:47;12.70;;;5.70;;
20890;SDS011;10605;52.968;8.844;2022-09-14T04:12:12;10.98;;;5.68;;
20890;SDS011;10605;52.968;8.844;2022-09-14T04:14:38;8.02;;;5.32;;
20890;SDS011;10605;52.968;8.844;2022-09-14T04:17:04;6.22;;;5.22;;
20890;SDS011;10605;52.968;8.844;2022-09-14T04:19:29;7.75;;;5.55;;
20890;SDS011;10605;52.968;8.844;2022-09-14T04:21:59;7.07;;;4.72;;
20890;SDS011;10605;52.968;8.844;2022-09-14T04:24:24;8.68;;;5.45;;
20890;SDS011;10605;52.968;8.844;2022-09-14T04:26:50;7.93;;;5.75;;
20890;SDS011;10605;52.968;8.844;2022-09-14T04:29:18;5.22;;;4.80;;
20890;SDS011;10605;52.968;8.844;2022-09-14T04:31:44;10.23;;;5.80;;
20890;SDS011;10605;52.968;8.844;2022-09-14T04:34:11;9.05;;;5.95;;
20890;SDS011;10605;52.968;8.844;2022-09-14T04:36:37;10.73;;;5.53;;
20890;SDS011;10605;52.968;8.844;2022-09-14T04:39:03;8.05;;;5.72;;
20890;SDS011;10605;52.968;8.844;2022-09-14T04:41:30;14.18;;;6.18;;
20890;SDS011;10605;52.968;8.844;2022-09-14T04:43:56;11.68;;;7.00;;
20890;SDS011;10605;52.968;8.844;2022-09-14T04:46:23;10.00;;;6.00;;
20890;SDS011;10605;52.968;8.844;2022-09-14T04:49:03;6.82;;;6.22;;
20890;SDS011;10605;52.968;8.844;2022-09-14T04:51:30;6.85;;;6.25;;
20890;SDS011;10605;52.968;8.844;2022-09-14T04:53:58;12.40;;;7.07;;
20890;SDS011;10605;52.968;8.844;2022-09-14T04:56:25;8.55;;;5.82;;
20890;SDS011;10605;52.968;8.844;2022-09-14T04:58:53;7.85;;;7.20;;
20890;SDS011;10605;52.968;8.844;2022-09-14T05:01:21;10.32;;;6.93;;
20890;SDS011;10605;52.968;8.844;2022-09-14T05:03:48;7.25;;;6.40;;
20890;SDS011;10605;52.968;8.844;2022-09-14T05:06:15;7.22;;;6.55;;
20890;SDS011;10605;52.968;8.844;2022-09-14T05:08:42;9.23;;;6.50;;
20890;SDS011;10605;52.968;8.844;2022-09-14T05:11:11;11.07;;;7.43;;
20890;SDS011;10605;52.968;8.844;2022-09-14T05:13:39;7.07;;;6.53;;
20890;SDS011;10605;52.968;8.844;2022-09-14T05:16:06;11.75;;;7.40;;
20890;SDS011;10605;52.968;8.844;2022-09-14T05:18:39;13.90;;;7.72;;
20890;SDS011;10605;52.968;8.844;2022-09-14T05:21:05;13.45;;;7.85;;
20890;SDS011;10605;52.968;8.844;2022-09-14T05:23:33;13.65;;;8.50;;
20890;SDS011;10605;52.968;8.844;2022-09-14T05:25:59;10.23;;;7.65;;
20890;SDS011;10605;52.968;8.844;2022-09-14T05:28:25;11.07;;;8.23;;
20890;SDS011;10605;52.968;8.844;2022-09-14T05:30:51;13.65;;;7.32;;
20890;SDS011;10605;52.968;8.844;2022-09-14T05:33:17;14.02;;;7.88;;
20890;SDS011;10605;52.968;8.844;2022-09-14T05:35:44;8.98;;;7.78;;
20890;SDS011;10605;52.968;8.844;2022-09-14T05:38:10;12.80;;;7.60;;
20890;SDS011;10605;52.968;8.844;2022-09-14T05:40:35;10.40;;;8.13;;
20890;SDS011;10605;52.968;8.844;2022-09-14T05:43:01;9.77;;;7.47;;
20890;SDS011;10605;52.968;8.844;2022-09-14T05:45:27;6.85;;;6.28;;
20890;SDS011;10605;52.968;8.844;2022-09-14T05:47:52;9.27;;;6.60;;
20890;SDS011;10605;52.968;8.844;2022-09-14T05:50:18;10.55;;;6.80;;
20890;SDS011;10605;52.968;8.844;2022-09-14T05:52:43;8.77;;;6.65;;
20890;SDS011;10605;52.968;8.844;2022-09-14T05:55:09;13.32;;;6.68;;
20890;SDS011;10605;52.968;8.844;2022-09-14T05:57:35;6.68;;;6.05;;
20890;SDS011;10605;52.968;8.844;2022-09-14T06:00:01;11.23;;;5.97;;
20890;SDS011;10605;52.968;8.844;2022-09-14T06:02:27;9.48;;;6.72;;
20890;SDS011;10605;52.968;8.844;2022-09-14T06:04:53;10.10;;;5.60;;
20890;SDS011;10605;52.968;8.844;2022-09-14T06:07:18;10.07;;;6.13;;
20890;SDS011;10605;52.968;8.844;2022-09-14T06:09:44;7.82;;;6.00;;
20890;SDS011;10605;52.968;8.844;2022-09-14T06:12:10;10.80;;;5.72;;
20890;SDS011;10605;52.968;8.844;2022-09-14T06:14:41;7.20;;;5.18;;
20890;SDS011;10605;52.968;8.844;2022-09-14T06:17:07;10.15;;;5.60;;
20890;SDS011;10605;52.968;8.844;2022-09-14T06:19:32;6.97;;;4.90;;
20890;SDS011;10605;52.968;8.844;2022-09-14T06:21:59;6.78;;;5.50;;
20890;SDS011;10605;52.968;8.844;2022-09-14T06:24:25;7.72;;;4.82;;
20890;SDS011;10605;52.968;8.844;2022-09-14T06:26:50;8.45;;;5.20;;
20890;SDS011;10605;52.968;8.844;2022-09-14T06:29:16;11.15;;;5.38;;
20890;SDS011;10605;52.968;8.844;2022-09-14T06:31:42;5.97;;;5.13;;
20890;SDS011;10605;52.968;8.844;2022-09-14T06:34:07;5.78;;;4.93;;
20890;SDS011;10605;52.968;8.844;2022-09-14T06:36:33;5.00;;;4.60;;
20890;SDS011;10605;52.968;8.844;2022-09-14T06:38:58;5.72;;;4.22;;
20890;SDS011;10605;52.968;8.844;2022-09-14T06:41:25;5.32;;;4.93;;
20890;SDS011;10605;52.968;8.844;2022-09-14T06:43:55;5.53;;;4.35;;
20890;SDS011;10605;52.968;8.844;2022-09-14T06:46:23;5.93;;;4.88;;
20890;SDS011;10605;52.968;8.844;2022-09-14T06:48:53;10.15;;;4.85;;
20890;SDS011;10605;52.968;8.844;2022-09-14T06:51:29;11.43;;;4.63;;
20890;SDS011;10605;52.968;8.844;2022-09-14T06:53:57;6.60;;;4.35;;
20890;SDS011;10605;52.968;8.844;2022-09-14T06:56:24;6.95;;;4.63;;
20890;SDS011;10605;52.968;8.844;2022-09-14T06:58:51;5.70;;;4.53;;
20890;SDS011;10605;52.968;8.844;2022-09-14T07:01:20;9.20;;;4.20;;
20890;SDS011;10605;52.968;8.844;2022-09-14T07:03:49;5.50;;;4.13;;
20890;SDS011;10605;52.968;8.844;2022-09-14T07:06:17;7.05;;;4.22;;
20890;SDS011;10605;52.968;8.844;2022-09-14T07:08:45;6.63;;;4.05;;
20890;SDS011;10605;52.968;8.844;2022-09-14T07:11:12;7.00;;;4.20;;
20890;SDS011;10605;52.968;8.844;2022-09-14T07:13:42;7.00;;;4.00;;
20890;SDS011;10605;52.968;8.844;2022-09-14T07:16:09;7.40;;;3.95;;
20890;SDS011;10605;52.968;8.844;2022-09-14T07:18:37;10.88;;;5.13;;
20890;SDS011;10605;52.968;8.844;2022-09-14T07:21:04;5.78;;;3.63;;
20890;SDS011;10605;52.968;8.844;2022-09-14T07:23:36;8.52;;;3.90;;
20890;SDS011;10605;52.968;8.844;2022-09-14T07:26:04;8.43;;;3.65;;
20890;SDS011;10605;52.968;8.844;2022-09-14T07:28:33;5.63;;;3.65;;
20890;SDS011;10605;52.968;8.844;2022-09-14T07:31:00;5.50;;;3.53;;
20890;SDS011;10605;52.968;8.844;2022-09-14T07:33:26;7.95;;;3.58;;
20890;SDS011;10605;52.968;8.844;2022-09-14T07:35:52;5.18;;;3.08;;
20890;SDS011;10605;52.968;8.844;2022-09-14T07:38:18;8.40;;;3.35;;
20890;SDS011;10605;52.968;8.844;2022-09-14T07:40:44;8.68;;;3.17;;
20890;SDS011;10605;52.968;8.844;2022-09-14T07:43:10;2.83;;;2.60;;
20890;SDS011;10605;52.968;8.844;2022-09-14T07:45:37;7.10;;;3.30;;
20890;SDS011;10605;52.968;8.844;2022-09-14T07:48:03;3.08;;;2.78;;
20890;SDS011;10605;52.968;8.844;2022-09-14T07:50:29;3.60;;;2.80;;
20890;SDS011;10605;52.968;8.844;2022-09-14T07:52:55;5.40;;;2.70;;
20890;SDS011;10605;52.968;8.844;2022-09-14T07:55:21;6.05;;;2.90;;
20890;SDS011;10605;52.968;8.844;2022-09-14T07:57:46;3.95;;;2.42;;
20890;SDS011;10605;52.968;8.844;2022-09-14T08:00:12;7.68;;;2.58;;
20890;SDS011;10605;52.968;8.844;2022-09-14T08:02:41;6.72;;;2.28;;
20890;SDS011;10605;52.968;8.844;2022-09-14T08:05:07;3.90;;;2.20;;
20890;SDS011;10605;52.968;8.844;2022-09-14T08:07:33;5.57;;;2.75;;
20890;SDS011;10605;52.968;8.844;2022-09-14T08:09:59;7.65;;;3.00;;
20890;SDS011;10605;52.968;8.844;2022-09-14T08:12:26;9.07;;;2.53;;
20890;SDS011;10605;52.968;8.844;2022-09-14T08:14:51;4.40;;;2.03;;
20890;SDS011;10605;52.968;8.844;2022-09-14T08:17:17;7.53;;;2.45;;
20890;SDS011;10605;52.968;8.844;2022-09-14T08:19:46;3.97;;;2.15;;
20890;SDS011;10605;52.968;8.844;2022-09-14T08:22:12;6.43;;;1.95;;
20890;SDS011;10605;52.968;8.844;2022-09-14T08:24:37;6.25;;;2.22;;
20890;SDS011;10605;52.968;8.844;2022-09-14T08:27:04;7.22;;;2.22;;
20890;SDS011;10605;52.968;8.844;2022-09-14T08:29:29;6.15;;;2.47;;
20890;SDS011;10605;52.968;8.844;2022-09-14T08:31:57;3.35;;;2.40;;
20890;SDS011;10605;52.968;8.844;2022-09-14T08:34:23;6.03;;;2.17;;
20890;SDS011;10605;52.968;8.844;2022-09-14T08:36:49;7.63;;;2.10;;
20890;SDS011;10605;52.968;8.844;2022-09-14T08:39:22;7.82;;;2.50;;
20890;SDS011;10605;52.968;8.844;2022-09-14T08:42:17;5.65;;;1.88;;
20890;SDS011;10605;52.968;8.844;2022-09-14T08:45:15;5.28;;;1.75;;
20890;SDS011;10605;52.968;8.844;2022-09-14T08:48:02;7.05;;;1.67;;
20890;SDS011;10605;52.968;8.844;2022-09-14T08:50:30;7.15;;;1.70;;
20890;SDS011;10605;52.968;8.844;2022-09-14T08:53:28;4.85;;;1.70;;
20890;SDS011;10605;52.968;8.844;2022-09-14T08:56:06;5.65;;;1.70;;
20890;SDS011;10605;52.968;8.844;2022-09-14T09:07:13;3.35;;;1.35;;
20890;SDS011;10605;52.968;8.844;2022-09-14T09:09:49;3.65;;;1.63;;
20890;SDS011;10605;52.968;8.844;2022-09-14T09:12:17;3.97;;;1.80;;
20890;SDS011;10605;52.968;8.844;2022-09-14T09:18:16;3.80;;;1.23;;
20890;SDS011;10605;52.968;8.844;2022-09-14T09:20:49;3.58;;;1.10;;
20890;SDS011;10605;52.968;8.844;2022-09-14T09:23:17;4.72;;;1.70;;
20890;SDS011;10605;52.968;8.844;2022-09-14T09:28:29;7.13;;;1.15;;
20890;SDS011;10605;52.968;8.844;2022-09-14T09:31:02;6.82;;;1.15;;
20890;SDS011;10605;52.968;8.844;2022-09-14T09:33:30;6.25;;;1.40;;
20890;SDS011;10605;52.968;8.844;2022-09-14T09:35:57;3.67;;;1.25;;
20890;SDS011;10605;52.968;8.844;2022-09-14T09:38:24;4.90;;;0.80;;
20890;SDS011;10605;52.968;8.844;2022-09-14T09:40:53;4.10;;;0.90;;
20890;SDS011;10605;52.968;8.844;2022-09-14T09:43:19;3.28;;;1.00;;
20890;SDS011;10605;52.968;8.844;2022-09-14T09:59:39;4.38;;;0.80;;
20890;SDS011;10605;52.968;8.844;2022-09-14T11:58:46;9.82;;;1.10;;
20890;SDS011;10605;52.968;8.844;2022-09-14T14:55:45;5.65;;;1.33;;
20890;SDS011;10605;52.968;8.844;2022-09-14T15:05:58;6.20;;;1.25;;
20890;SDS011;10605;52.968;8.844;2022-09-14T18:26:48;5.93;;;1.50;;
20890;SDS011;10605;52.968;8.844;2022-09-14T18:29:54;4.03;;;1.40;;
20890;SDS011;10605;52.968;8.844;2022-09-14T18:33:06;6.28;;;1.70;;
20890;SDS011;10605;52.968;8.844;2022-09-14T18:36:26;4.30;;;1.65;;
20890;SDS011;10605;52.968;8.844;2022-09-14T18:42:49;5.65;;;1.80;;
20890;SDS011;10605;52.968;8.844;2022-09-14T18:45:54;3.20;;;1.63;;
20890;SDS011;10605;52.968;8.844;2022-09-14T18:49:05;3.35;;;1.30;;
20890;SDS011;10605;52.968;8.844;2022-09-14T18:55:06;5.35;;;1.88;;
20890;SDS011;10605;52.968;8.844;2022-09-14T18:58:19;3.55;;;1.20;;
20890;SDS011;10605;52.968;8.844;2022-09-14T19:01:49;4.75;;;1.58;;
20890;SDS011;10605;52.968;8.844;2022-09-14T19:05:26;3.65;;;1.38;;
20890;SDS011;10605;52.968;8.844;2022-09-14T19:08:40;5.70;;;2.03;;
20890;SDS011;10605;52.968;8.844;2022-09-14T19:11:24;7.97;;;1.60;;
20890;SDS011;10605;52.968;8.844;2022-09-14T19:14:05;7.10;;;1.38;;
20890;SDS011;10605;52.968;8.844;2022-09-14T19:16:34;4.50;;;1.50;;
20890;SDS011;10605;52.968;8.844;2022-09-14T19:19:02;4.55;;;1.58;;
20890;SDS011;10605;52.968;8.844;2022-09-14T19:21:28;4.93;;;1.40;;
20890;SDS011;10605;52.968;8.844;2022-09-14T19:23:58;5.35;;;1.52;;
20890;SDS011;10605;52.968;8.844;2022-09-14T19:26:31;6.90;;;1.50;;
20890;SDS011;10605;52.968;8.844;2022-09-14T19:29:02;8.27;;;1.60;;
20890;SDS011;10605;52.968;8.844;2022-09-14T19:31:29;14.13;;;2.67;;
20890;SDS011;10605;52.968;8.844;2022-09-14T19:34:00;5.45;;;1.60;;
20890;SDS011;10605;52.968;8.844;2022-09-14T19:36:34;4.10;;;1.52;;
20890;SDS011;10605;52.968;8.844;2022-09-14T19:39:03;8.88;;;1.60;;
20890;SDS011;10605;52.968;8.844;2022-09-14T19:41:38;3.40;;;1.67;;
20890;SDS011;10605;52.968;8.844;2022-09-14T19:44:04;4.20;;;1.88;;
20890;SDS011;10605;52.968;8.844;2022-09-14T19:46:33;6.50;;;1.70;;
20890;SDS011;10605;52.968;8.844;2022-09-14T19:49:04;7.15;;;2.13;;
20890;SDS011;10605;52.968;8.844;2022-09-14T19:51:38;10.48;;;1.88;;
20890;SDS011;10605;52.968;8.844;2022-09-14T19:54:04;7.07;;;1.88;;
20890;SDS011;10605;52.968;8.844;2022-09-14T19:56:30;8.27;;;1.77;;
20890;SDS011;10605;52.968;8.844;2022-09-14T19:58:57;6.22;;;2.50;;
20890;SDS011;10605;52.968;8.844;2022-09-14T20:01:24;6.13;;;2.33;;
20890;SDS011;10605;52.968;8.844;2022-09-14T20:03:51;8.90;;;2.42;;
20890;SDS011;10605;52.968;8.844;2022-09-14T20:06:18;9.85;;;2.88;;
20890;SDS011;10605;52.968;8.844;2022-09-14T20:08:54;2.97;;;2.10;;
20890;SDS011;10605;52.968;8.844;2022-09-14T20:11:22;7.43;;;3.00;;
20890;SDS011;10605;52.968;8.844;2022-09-14T20:13:49;15.25;;;2.97;;
20890;SDS011;10605;52.968;8.844;2022-09-14T20:16:19;8.35;;;3.10;;
20890;SDS011;10605;52.968;8.844;2022-09-14T20:18:47;12.02;;;2.95;;
20890;SDS011;10605;52.968;8.844;2022-09-14T20:21:15;9.77;;;2.90;;
20890;SDS011;10605;52.968;8.844;2022-09-14T20:23:42;4.72;;;2.05;;
20890;SDS011;10605;52.968;8.844;2022-09-14T20:26:10;9.95;;;2.40;;
20890;SDS011;10605;52.968;8.844;2022-09-14T20:28:37;10.75;;;2.70;;
20890;SDS011;10605;52.968;8.844;2022-09-14T20:31:07;8.88;;;2.92;;
20890;SDS011;10605;52.968;8.844;2022-09-14T20:33:37;9.20;;;2.70;;
20890;SDS011;10605;52.968;8.844;2022-09-14T20:36:05;7.60;;;2.45;;
20890;SDS011;10605;52.968;8.844;2022-09-14T20:38:33;9.35;;;2.60;;
20890;SDS011;10605;52.968;8.844;2022-09-14T20:41:00;6.00;;;2.03;;
20890;SDS011;10605;52.968;8.844;2022-09-14T20:43:28;3.67;;;2.60;;
20890;SDS011;10605;52.968;8.844;2022-09-14T20:45:59;6.93;;;2.42;;
20890;SDS011;10605;52.968;8.844;2022-09-14T20:48:33;4.90;;;2.60;;
20890;SDS011;10605;52.968;8.844;2022-09-14T20:50:59;9.43;;;2.50;;
20890;SDS011;10605;52.968;8.844;2022-09-14T20:53:27;6.32;;;2.55;;
20890;SDS011;10605;52.968;8.844;2022-09-14T20:56:05;6.22;;;2.75;;
20890;SDS011;10605;52.968;8.844;2022-09-14T20:58:41;6.53;;;2.33;;
20890;SDS011;10605;52.968;8.844;2022-09-14T21:01:08;7.45;;;2.40;;
20890;SDS011;10605;52.968;8.844;2022-09-14T21:03:38;8.88;;;2.10;;
20890;SDS011;10605;52.968;8.844;2022-09-14T21:06:06;6.30;;;2.10;;
20890;SDS011;10605;52.968;8.844;2022-09-14T21:08:35;7.47;;;2.85;;
20890;SDS011;10605;52.968;8.844;2022-09-14T21:11:23;10.27;;;2.60;;
20890;SDS011;10605;52.968;8.844;2022-09-14T21:13:49;3.30;;;2.40;;
20890;SDS011;10605;52.968;8.844;2022-09-14T21:16:18;10.10;;;2.50;;
20890;SDS011;10605;52.968;8.844;2022-09-14T21:18:46;4.75;;;2.10;;
20890;SDS011;10605;52.968;8.844;2022-09-14T21:21:16;4.47;;;2.60;;
20890;SDS011;10605;52.968;8.844;2022-09-14T21:23:43;12.35;;;2.60;;
20890;SDS011;10605;52.968;8.844;2022-09-14T21:26:10;7.20;;;1.80;;
20890;SDS011;10605;52.968;8.844;2022-09-14T21:28:37;5.20;;;2.75;;
20890;SDS011;10605;52.968;8.844;2022-09-14T21:31:05;6.18;;;2.22;;
20890;SDS011;10605;52.968;8.844;2022-09-14T21:33:33;8.52;;;2.65;;
20890;SDS011;10605;52.968;8.844;2022-09-14T21:36:06;4.55;;;2.20;;
20890;SDS011;10605;52.968;8.844;2022-09-14T21:38:37;7.90;;;2.25;;
20890;SDS011;10605;52.968;8.844;2022-09-14T21:41:09;2.75;;;2.13;;
20890;SDS011;10605;52.968;8.844;2022-09-14T21:43:36;5.03;;;2.75;;
20890;SDS011;10605;52.968;8.844;2022-09-14T21:46:02;6.80;;;2.15;;
20890;SDS011;10605;52.968;8.844;2022-09-14T21:48:29;9.93;;;2.67;;
20890;SDS011;10605;52.968;8.844;2022-09-14T21:51:08;5.85;;;2.30;;
20890;SDS011;10605;52.968;8.844;2022-09-14T21:53:42;6.60;;;2.40;;
20890;SDS011;10605;52.968;8.844;2022-09-14T21:56:12;8.98;;;2.78;;
20890;SDS011;10605;52.968;8.844;2022-09-14T21:58:39;6.63;;;2.33;;
20890;SDS011;10605;52.968;8.844;2022-09-14T22:01:04;3.22;;;2.25;;
20890;SDS011;10605;52.968;8.844;2022-09-14T22:03:30;4.93;;;1.95;;
20890;SDS011;10605;52.968;8.844;2022-09-14T22:05:57;6.07;;;2.00;;
20890;SDS011;10605;52.968;8.844;2022-09-14T22:08:31;4.95;;;2.08;;
20890;SDS011;10605;52.968;8.844;2022-09-14T22:11:01;4.85;;;2.60;;
20890;SDS011;10605;52.968;8.844;2022-09-14T22:13:31;5.55;;;2.80;;
20890;SDS011;10605;52.968;8.844;2022-09-14T22:15:57;3.58;;;2.30;;
20890;SDS011;10605;52.968;8.844;2022-09-14T22:18:23;8.80;;;2.33;;
20890;SDS011;10605;52.968;8.844;2022-09-14T22:20:58;4.22;;;2.55;;
20890;SDS011;10605;52.968;8.844;2022-09-14T22:23:24;4.13;;;2.40;;
20890;SDS011;10605;52.968;8.844;2022-09-14T22:25:51;4.40;;;2.00;;
20890;SDS011;10605;52.968;8.844;2022-09-14T22:28:17;7.18;;;2.05;;
20890;SDS011;10605;52.968;8.844;2022-09-14T22:30:44;3.25;;;1.92;;
20890;SDS011;10605;52.968;8.844;2022-09-14T22:33:11;4.68;;;2.05;;
20890;SDS011;10605;52.968;8.844;2022-09-14T22:35:36;6.00;;;2.58;;
20890;SDS011;10605;52.968;8.844;2022-09-14T22:38:02;3.55;;;2.30;;
20890;SDS011;10605;52.968;8.844;2022-09-14T22:40:27;6.80;;;2.50;;
20890;SDS011;10605;52.968;8.844;2022-09-14T22:42:53;5.45;;;2.45;;
20890;SDS011;10605;52.968;8.844;2022-09-14T22:45:19;2.53;;;1.98;;
20890;SDS011;10605;52.968;8.844;2022-09-14T22:47:44;2.75;;;2.10;;
20890;SDS011;10605;52.968;8.844;2022-09-14T22:50:11;3.78;;;2.10;;
20890;SDS011;10605;52.968;8.844;2022-09-14T22:52:38;5.65;;;2.22;;
20890;SDS011;10605;52.968;8.844;2022-09-14T22:55:03;9.38;;;2.38;;
20890;SDS011;10605;52.968;8.844;2022-09-14T22:57:29;4.25;;;2.15;;
20890;SDS011;10605;52.968;8.844;2022-09-14T22:59:55;7.43;;;2.33;;
20890;SDS011;10605;52.968;8.844;2022-09-14T23:02:21;4.25;;;2.13;;
20890;SDS011;10605;52.968;8.844;2022-09-14T23:04:47;4.70;;;2.80;;
20890;SDS011;10605;52.968;8.844;2022-09-14T23:07:13;3.97;;;2.00;;
20890;SDS011;10605;52.968;8.844;2022-09-14T23:09:38;3.70;;;1.92;;
20890;SDS011;10605;52.968;8.844;2022-09-14T23:12:04;7.00;;;2.15;;
20890;SDS011;10605;52.968;8.844;2022-09-14T23:14:30;6.78;;;2.10;;
20890;SDS011;10605;52.968;8.844;2022-09-14T23:16:56;12.60;;;2.50;;
20890;SDS011;10605;52.968;8.844;2022-09-14T23:19:22;5.43;;;2.28;;
20890;SDS011;10605;52.968;8.844;2022-09-14T23:21:47;4.55;;;2.85;;
20890;SDS011;10605;52.968;8.844;2022-09-14T23:24:13;4.63;;;2.60;;
20890;SDS011;10605;52.968;8.844;2022-09-14T23:26:39;2.78;;;2.50;;
20890;SDS011;10605;52.968;8.844;2022-09-14T23:29:06;5.70;;;2.50;;
20890;SDS011;10605;52.968;8.844;2022-09-14T23:31:36;5.78;;;2.72;;
20890;SDS011;10605;52.968;8.844;2022-09-14T23:34:02;8.73;;;2.60;;
20890;SDS011;10605;52.968;8.844;2022-09-14T23:36:28;10.70;;;3.08;;
20890;SDS011;10605;52.968;8.844;2022-09-14T23:38:55;10.50;;;2.83;;
20890;SDS011;10605;52.968;8.844;2022-09-14T23:41:21;7.25;;;3.00;;
20890;SDS011;10605;52.968;8.844;2022-09-14T23:43:48;9.32;;;2.97;;
20890;SDS011;10605;52.968;8.844;2022-09-14T23:46:14;7.20;;;2.53;;
20890;SDS011;10605;52.968;8.844;2022-09-14T23:48:40;7.88;;;3.10;;
20890;SDS011;10605;52.968;8.844;2022-09-14T23:51:07;8.88;;;3.20;;
20890;SDS011;10605;52.968;8.844;2022-09-14T23:53:34;5.82;;;3.00;;
20890;SDS011;10605;52.968;8.844;2022-09-14T23:56:00;9.07;;;3.65;;
20890;SDS011;10605;52.968;8.844;2022-09-14T23:58:26;6.75;;;2.97;;
